Time;durP1;ratioP1;P1;durP2;ratioP2;P2;SDS_P1;SDS_P2;PMS_P1;PMS_P2;Temp;Humidity;BMP_temperature;BMP_pressure;BME280_temperature;BME280_humidity;BME280_pressure;Samples;Min_cycle;Max_cycle;Signal;HPM_P1;HPM_P2
2021/08/13 00:02:11;;;;;;;13.90;3.03;;;;;;;18.40;65.29;100873.22;4935303;29;20070;-94
2021/08/13 00:04:37;;;;;;;12.30;3.50;;;;;;;18.46;64.63;100866.44;4935237;29;20027;-95
2021/08/13 00:07:03;;;;;;;16.50;3.67;;;;;;;18.42;65.36;100878.34;4934290;29;20382;-94
2021/08/13 00:09:28;;;;;;;12.95;3.08;;;;;;;18.48;65.19;100884.94;4934087;29;20020;-94
2021/08/13 00:11:54;;;;;;;17.75;3.25;;;;;;;18.42;65.73;100879.22;4933878;29;20028;-94
2021/08/13 00:14:20;;;;;;;21.40;3.95;;;;;;;18.45;65.57;100890.53;4933798;29;20030;-93
2021/08/13 00:16:45;;;;;;;21.52;3.45;;;;;;;18.55;65.29;100889.53;4934912;29;20474;-94
2021/08/13 00:19:11;;;;;;;16.35;3.40;;;;;;;18.58;65.22;100897.22;4933166;29;20032;-93
2021/08/13 00:21:36;;;;;;;15.07;3.42;;;;;;;18.51;65.44;100898.78;4935026;29;20529;-93
2021/08/13 00:24:01;;;;;;;16.00;3.08;;;;;;;18.65;65.06;100897.47;4933611;29;20159;-94
2021/08/13 00:26:27;;;;;;;9.35;2.55;;;;;;;18.67;65.33;100905.31;4933843;29;20368;-94
2021/08/13 00:28:53;;;;;;;15.23;3.45;;;;;;;18.67;64.51;100897.34;4934990;29;20042;-94
2021/08/13 00:31:19;;;;;;;19.60;3.28;;;;;;;18.59;65.09;100901.53;4934966;29;20024;-94
2021/08/13 00:33:45;;;;;;;17.23;3.17;;;;;;;18.68;64.93;100909.63;4933338;29;20027;-94
2021/08/13 00:36:10;;;;;;;15.80;3.42;;;;;;;18.74;64.44;100904.59;4933527;29;20119;-93
2021/08/13 00:38:36;;;;;;;19.20;3.53;;;;;;;18.70;64.67;100902.34;4933666;29;20111;-94
2021/08/13 00:41:03;;;;;;;16.10;3.08;;;;;;;18.74;64.31;100895.75;4933715;29;20028;-93
2021/08/13 00:43:28;;;;;;;12.75;3.35;;;;;;;18.57;65.06;100903.50;4933592;29;20479;-93
2021/08/13 00:45:54;;;;;;;15.68;3.63;;;;;;;18.56;65.04;100911.63;4933477;29;20028;-94
2021/08/13 00:48:19;;;;;;;18.08;3.58;;;;;;;18.60;65.02;100911.22;4933437;29;20439;-94
2021/08/13 00:50:45;;;;;;;13.43;2.75;;;;;;;18.70;64.18;100902.34;4934850;29;20032;-94
2021/08/13 00:53:11;;;;;;;10.35;2.92;;;;;;;18.75;64.14;100910.75;4933545;29;20027;-93
2021/08/13 00:55:37;;;;;;;14.57;3.25;;;;;;;18.72;64.42;100905.69;4934743;29;20110;-93
2021/08/13 00:58:02;;;;;;;18.00;3.97;;;;;;;18.73;64.07;100918.88;4933298;29;20118;-93
2021/08/13 01:00:28;;;;;;;20.58;3.08;;;;;;;18.62;64.86;100919.03;4949528;29;20024;-94
2021/08/13 01:02:54;;;;;;;18.13;2.97;;;;;;;18.70;64.42;100915.66;4933684;29;20394;-94
2021/08/13 01:05:20;;;;;;;10.95;2.80;;;;;;;18.79;64.17;100914.78;4934762;29;20368;-95
2021/08/13 01:07:45;;;;;;;18.92;3.55;;;;;;;18.73;64.56;100913.53;4933492;29;20031;-94
2021/08/13 01:10:12;;;;;;;12.63;3.08;;;;;;;18.75;64.19;100916.06;4933658;29;20024;-96
2021/08/13 01:12:59;;;;;;;12.50;3.20;;;;;;;18.86;63.99;100913.28;4933503;29;20038;-93
2021/08/13 01:15:27;;;;;;;15.55;3.28;;;;;;;18.55;64.85;100909.97;4933258;29;20390;-95
2021/08/13 01:18:05;;;;;;;16.58;2.50;;;;;;;18.61;65.02;100910.22;4933433;29;20032;-94
2021/08/13 01:21:15;;;;;;;15.93;2.97;;;;;;;18.62;65.33;100909.25;4933600;29;20494;-95
2021/08/13 01:23:48;;;;;;;18.10;3.60;;;;;;;18.48;65.73;100914.19;4943464;29;20051;-96
2021/08/13 01:26:15;;;;;;;14.90;3.72;;;;;;;18.47;65.50;100905.38;4933509;29;20035;-95
2021/08/13 01:29:02;;;;;;;13.48;2.80;;;;;;;18.76;64.76;100915.06;4933270;29;20028;-94
2021/08/13 01:31:27;;;;;;;12.65;3.38;;;;;;;18.51;65.19;100898.78;4935579;29;20536;-95
2021/08/13 01:34:04;;;;;;;12.45;2.85;;;;;;;18.67;65.18;100902.66;4936677;29;20139;-95
2021/08/13 01:36:31;;;;;;;8.10;2.70;;;;;;;18.55;65.68;100900.16;4937061;29;20090;-95
2021/08/13 01:39:01;;;;;;;15.40;3.38;;;;;;;18.59;65.72;100906.88;4936793;29;20074;-94
2021/08/13 01:41:28;;;;;;;15.60;2.90;;;;;;;18.44;66.32;100900.31;4936759;29;20474;-95
2021/08/13 01:43:54;;;;;;;17.75;3.65;;;;;;;18.51;65.77;100904.09;4937643;29;20058;-94
2021/08/13 01:46:20;;;;;;;11.88;3.03;;;;;;;18.54;65.78;100914.47;4936756;29;20558;-95
2021/08/13 01:48:46;;;;;;;14.35;3.35;;;;;;;18.45;66.16;100903.84;4936497;29;20071;-94
2021/08/13 01:51:17;;;;;;;13.50;2.95;;;;;;;18.54;66.02;100914.47;4936545;29;20024;-95
2021/08/13 01:53:46;;;;;;;11.90;3.78;;;;;;;18.27;67.33;100901.91;4936433;29;20039;-94
2021/08/13 01:56:12;;;;;;;11.02;2.75;;;;;;;18.45;67.16;100915.31;4936137;29;20035;-95
2021/08/13 01:58:37;;;;;;;6.60;2.72;;;;;;;18.47;67.25;100917.84;4937780;29;20031;-93
2021/08/13 02:01:04;;;;;;;15.48;3.45;;;;;;;18.54;66.69;100917.13;4936383;29;20028;-94
2021/08/13 02:03:31;;;;;;;12.18;2.83;;;;;;;18.62;66.59;100919.88;4936163;29;20039;-94
2021/08/13 02:05:57;;;;;;;11.15;2.75;;;;;;;18.49;66.91;100923.84;4936038;29;20110;-95
2021/08/13 02:08:24;;;;;;;11.77;3.35;;;;;;;18.28;67.83;100908.88;4936021;29;20059;-94
2021/08/13 02:10:49;;;;;;;16.05;3.17;;;;;;;18.40;67.54;100902.47;4936290;29;20023;-94
2021/08/13 02:13:15;;;;;;;12.23;3.30;;;;;;;18.41;67.67;100897.97;4936214;29;20087;-95
2021/08/13 02:15:46;;;;;;;10.95;2.78;;;;;;;18.63;66.88;100905.59;4936099;29;20122;-94
2021/08/13 02:18:16;;;;;;;16.95;4.07;;;;;;;18.56;67.37;100908.97;4936119;29;20037;-94
2021/08/13 02:20:44;;;;;;;13.52;2.85;;;;;;;18.49;67.37;100903.41;4935924;29;20083;-94
2021/08/13 02:23:10;;;;;;;12.30;3.33;;;;;;;18.39;67.42;100900.75;4937033;29;20027;-93
2021/08/13 02:25:36;;;;;;;10.88;3.50;;;;;;;18.16;68.93;100894.09;4935850;29;20024;-95
2021/08/13 02:28:02;;;;;;;16.20;3.13;;;;;;;18.25;68.40;100885.25;4935731;29;20549;-94
2021/08/13 02:30:27;;;;;;;11.90;3.65;;;;;;;18.28;67.77;100887.63;4935939;29;20038;-93
2021/08/13 02:32:53;;;;;;;10.73;3.15;;;;;;;18.45;67.50;100888.72;4936587;29;20418;-94
2021/08/13 02:35:18;;;;;;;11.77;2.70;;;;;;;18.43;67.48;100893.34;4935718;29;20038;-94
2021/08/13 02:37:49;;;;;;;14.68;2.83;;;;;;;18.50;67.44;100896.25;4936777;29;20060;-94
2021/08/13 02:40:19;;;;;;;16.00;3.75;;;;;;;18.49;67.50;100900.75;4935627;29;20062;-95
2021/08/13 02:42:50;;;;;;;22.67;3.95;;;;;;;18.49;67.70;100890.09;4935945;29;20047;-95
2021/08/13 02:45:21;;;;;;;14.73;2.90;;;;;;;18.59;67.36;100896.22;4936562;29;20036;-94
2021/08/13 02:47:47;;;;;;;12.68;3.83;;;;;;;18.50;67.38;100886.44;4935350;29;20063;-93
2021/08/13 02:50:16;;;;;;;19.45;4.32;;;;;;;18.56;67.45;100883.25;4935607;29;20028;-94
2021/08/13 02:52:54;;;;;;;9.73;2.75;;;;;;;18.68;67.26;100891.88;4935551;29;20016;-94
2021/08/13 02:55:22;;;;;;;10.40;2.47;;;;;;;18.73;67.08;100891.44;4951292;28;20035;-94
2021/08/13 02:57:52;;;;;;;11.23;2.97;;;;;;;18.78;66.79;100892.69;4934894;29;20046;-94
2021/08/13 03:00:19;;;;;;;14.07;3.17;;;;;;;18.71;66.76;100888.91;4935160;29;20028;-94
2021/08/13 03:02:47;;;;;;;9.40;2.53;;;;;;;18.67;67.10;100887.53;4935351;29;20064;-95
2021/08/13 03:05:14;;;;;;;17.50;2.75;;;;;;;18.76;66.31;100880.50;4935135;29;20316;-95
2021/08/13 03:07:40;;;;;;;14.88;2.80;;;;;;;18.71;66.57;100885.44;4936440;29;20050;-94
2021/08/13 03:10:07;;;;;;;17.25;3.78;;;;;;;18.71;66.75;100882.75;4936211;29;20470;-95
2021/08/13 03:12:35;;;;;;;12.88;3.05;;;;;;;18.47;67.86;100873.47;4936297;29;20035;-96
2021/08/13 03:15:01;;;;;;;16.63;3.75;;;;;;;18.69;67.05;100861.63;4935038;29;20023;-96
2021/08/13 03:17:28;;;;;;;18.77;3.53;;;;;;;18.68;66.74;100867.94;4934874;29;20063;-94
2021/08/13 03:19:54;;;;;;;15.70;3.75;;;;;;;18.66;66.08;100855.75;4935031;29;20099;-94
2021/08/13 03:22:20;;;;;;;16.02;3.42;;;;;;;18.65;66.68;100846.13;4934814;29;20059;-93
2021/08/13 03:24:46;;;;;;;10.10;2.40;;;;;;;18.66;66.67;100853.09;4934729;29;20030;-95
2021/08/13 03:27:12;;;;;;;10.23;2.40;;;;;;;18.61;66.26;100843.72;4934985;29;20110;-96
2021/08/13 03:29:37;;;;;;;16.25;3.95;;;;;;;18.58;66.39;100846.69;4935039;29;20123;-95
2021/08/13 03:32:04;;;;;;;11.70;2.95;;;;;;;18.65;67.08;100857.59;4934667;29;20479;-94
2021/08/13 03:34:30;;;;;;;13.07;3.25;;;;;;;18.52;67.06;100849.94;4934512;29;20027;-94
2021/08/13 03:36:57;;;;;;;13.90;3.53;;;;;;;18.53;66.87;100843.63;4934489;29;20031;-95
2021/08/13 03:39:23;;;;;;;16.13;3.70;;;;;;;18.63;66.55;100852.41;4934684;29;20032;-94
2021/08/13 03:41:48;;;;;;;22.58;4.60;;;;;;;18.53;67.18;100848.13;4934555;29;20027;-94
2021/08/13 03:44:13;;;;;;;12.02;3.00;;;;;;;18.53;67.36;100845.47;4934260;29;20529;-94
2021/08/13 03:46:39;;;;;;;13.50;3.28;;;;;;;18.55;66.94;100844.31;4935630;29;20031;-93
2021/08/13 03:49:04;;;;;;;13.90;3.20;;;;;;;18.56;67.26;100840.69;4934379;29;20035;-94
2021/08/13 03:51:29;;;;;;;14.32;2.67;;;;;;;18.72;66.78;100847.19;4934339;29;20031;-94
2021/08/13 03:53:55;;;;;;;19.45;3.53;;;;;;;18.60;66.92;100836.75;4934296;29;20078;-95
2021/08/13 03:56:20;;;;;;;19.90;4.78;;;;;;;18.68;66.88;100841.34;4934326;29;20028;-96
2021/08/13 03:58:46;;;;;;;13.73;3.45;;;;;;;18.71;66.71;100840.22;4934294;29;20051;-95
2021/08/13 04:01:11;;;;;;;13.20;3.08;;;;;;;18.68;66.98;100845.81;4934388;29;20024;-95
2021/08/13 04:03:36;;;;;;;15.50;3.30;;;;;;;18.76;66.81;100840.59;4934200;29;20115;-94
2021/08/13 04:06:02;;;;;;;12.93;3.28;;;;;;;18.63;67.17;100833.78;4934071;29;20038;-94
2021/08/13 04:08:28;;;;;;;12.98;4.00;;;;;;;18.77;66.52;100844.94;4934033;29;20479;-94
2021/08/13 04:10:53;;;;;;;12.38;3.38;;;;;;;18.83;66.46;100839.06;4934066;29;20028;-95
2021/08/13 04:13:19;;;;;;;13.02;3.17;;;;;;;18.78;66.31;100851.94;4935526;29;20071;-95
2021/08/13 04:15:44;;;;;;;14.30;3.10;;;;;;;18.82;66.66;100856.03;4935325;29;20071;-94
2021/08/13 04:18:10;;;;;;;13.50;3.28;;;;;;;18.87;66.96;100863.53;4934240;29;20031;-94
2021/08/13 04:20:36;;;;;;;16.98;4.13;;;;;;;18.92;66.19;100850.66;4933934;29;20470;-95
2021/08/13 04:23:01;;;;;;;16.08;3.53;;;;;;;18.93;66.29;100842.50;4935026;29;20106;-94
2021/08/13 04:25:26;;;;;;;11.80;3.38;;;;;;;18.91;65.58;100820.53;4933872;29;20051;-94
2021/08/13 04:27:52;;;;;;;21.33;3.67;;;;;;;18.88;65.96;100852.75;4934108;29;20023;-95
2021/08/13 04:30:17;;;;;;;12.90;3.20;;;;;;;18.79;66.73;100856.25;4933922;29;20126;-94
2021/08/13 04:32:43;;;;;;;11.65;3.30;;;;;;;18.85;66.13;100862.84;4933778;29;20091;-95
2021/08/13 04:35:09;;;;;;;14.32;3.13;;;;;;;18.92;66.26;100863.97;4934931;29;20028;-94
2021/08/13 04:37:34;;;;;;;15.90;3.13;;;;;;;18.91;66.27;100867.59;4933699;29;20049;-95
2021/08/13 04:40:00;;;;;;;16.30;3.47;;;;;;;18.82;66.31;100867.50;4935123;29;20504;-94
2021/08/13 04:42:25;;;;;;;17.30;2.95;;;;;;;18.77;66.85;100872.38;4933756;29;20479;-94
2021/08/13 04:44:50;;;;;;;16.92;3.70;;;;;;;18.77;66.79;100882.19;4934822;29;20427;-95
2021/08/13 04:47:16;;;;;;;13.30;3.22;;;;;;;18.91;66.41;100881.72;4933636;29;20032;-94
2021/08/13 04:49:41;;;;;;;13.40;3.63;;;;;;;18.94;66.30;100885.94;4933529;29;20162;-93
2021/08/13 04:52:06;;;;;;;17.38;3.38;;;;;;;18.79;66.76;100891.72;4934755;29;20119;-94
2021/08/13 04:54:32;;;;;;;17.45;4.18;;;;;;;18.93;66.72;100892.22;4933574;29;20024;-95
2021/08/13 04:56:59;;;;;;;13.95;3.22;;;;;;;18.95;66.42;100896.41;4933527;29;20264;-93
2021/08/13 04:59:25;;;;;;;15.80;3.72;;;;;;;18.82;66.60;100895.94;4934763;29;20051;-96
2021/08/13 05:01:50;;;;;;;15.68;3.55;;;;;;;19.03;66.34;100891.19;4933578;29;20024;-95
2021/08/13 05:04:17;;;;;;;13.38;3.00;;;;;;;19.06;66.24;100905.22;4934743;29;20043;-94
2021/08/13 05:06:42;;;;;;;14.85;3.22;;;;;;;19.10;66.23;100903.94;4937293;29;20019;-94
2021/08/13 05:09:07;;;;;;;21.02;3.80;;;;;;;18.95;66.49;100909.72;4937226;29;20166;-94
2021/08/13 05:11:33;;;;;;;18.38;3.83;;;;;;;19.11;66.10;100910.91;4937158;29;20164;-94
2021/08/13 05:13:58;;;;;;;16.65;3.50;;;;;;;19.30;65.24;100910.81;4937119;29;20106;-95
2021/08/13 05:16:23;;;;;;;20.42;5.07;;;;;;;19.11;65.42;100897.59;4937024;29;20119;-94
2021/08/13 05:18:49;;;;;;;16.85;3.47;;;;;;;19.20;65.85;100894.06;4936909;29;20023;-94
2021/08/13 05:21:14;;;;;;;15.77;3.22;;;;;;;19.26;65.67;100898.78;4937102;29;20024;-94
2021/08/13 05:23:39;;;;;;;13.18;3.50;;;;;;;19.25;65.90;100901.59;4936739;29;20034;-94
2021/08/13 05:26:05;;;;;;;19.90;4.00;;;;;;;19.18;65.91;100917.34;4936769;29;20553;-94
2021/08/13 05:28:30;;;;;;;18.75;3.58;;;;;;;19.18;66.12;100922.66;4938198;29;20031;-94
2021/08/13 05:30:55;;;;;;;18.10;3.45;;;;;;;19.26;66.00;100922.75;4936823;29;20028;-94
2021/08/13 05:33:21;;;;;;;20.90;5.53;;;;;;;19.30;65.77;100924.13;4952598;29;20553;-95
2021/08/13 05:35:46;;;;;;;17.60;3.63;;;;;;;19.27;65.42;100911.09;4937906;29;20426;-94
2021/08/13 05:38:12;;;;;;;19.50;3.72;;;;;;;19.27;66.25;100926.25;4936579;29;20394;-95
2021/08/13 05:40:37;;;;;;;15.68;4.05;;;;;;;19.31;65.80;100928.47;4936779;29;20329;-94
2021/08/13 05:43:04;;;;;;;18.17;4.13;;;;;;;19.28;65.86;100933.25;4936721;29;20083;-94
2021/08/13 05:45:29;;;;;;;16.75;3.97;;;;;;;19.33;65.95;100942.47;4936579;29;20145;-94
2021/08/13 05:47:55;;;;;;;21.60;4.97;;;;;;;19.40;66.06;100935.56;4936514;29;20065;-95
2021/08/13 05:50:20;;;;;;;15.68;4.32;;;;;;;19.35;66.35;100921.88;4936506;29;20382;-94
2021/08/13 05:52:46;;;;;;;17.00;3.47;;;;;;;19.42;65.41;100925.59;4936589;29;20122;-95
2021/08/13 05:55:12;;;;;;;15.50;3.13;;;;;;;19.50;66.03;100921.34;4937690;29;20478;-95
2021/08/13 05:57:38;;;;;;;19.02;3.92;;;;;;;19.48;65.96;100928.66;4936359;29;20040;-94
2021/08/13 06:00:06;;;;;;;14.43;3.85;;;;;;;19.54;65.93;100928.06;4936452;29;20330;-94
2021/08/13 06:02:31;;;;;;;16.65;3.50;;;;;;;19.49;66.08;100922.31;4936304;29;20419;-94
2021/08/13 06:04:57;;;;;;;11.38;3.30;;;;;;;19.56;65.79;100928.75;4937539;29;20032;-94
2021/08/13 06:07:23;;;;;;;19.92;3.72;;;;;;;19.55;65.62;100938.56;4936726;29;20019;-95
2021/08/13 06:09:48;;;;;;;19.00;3.17;;;;;;;19.60;65.58;100922.13;4936285;29;20015;-94
2021/08/13 06:12:14;;;;;;;21.73;4.70;;;;;;;19.69;65.27;100931.88;4936164;29;20030;-94
2021/08/13 06:14:39;;;;;;;17.20;4.28;;;;;;;19.60;65.63;100916.78;4937176;29;20027;-95
2021/08/13 06:17:06;;;;;;;16.55;3.97;;;;;;;19.80;65.21;100926.34;4934873;29;20066;-94
2021/08/13 06:19:32;;;;;;;20.02;3.60;;;;;;;19.81;65.40;100941.34;4937193;29;20024;-95
2021/08/13 06:21:58;;;;;;;19.67;4.05;;;;;;;19.61;65.84;100940.63;4935706;29;20024;-94
2021/08/13 06:24:24;;;;;;;16.02;3.33;;;;;;;19.78;64.92;100940.81;4935691;29;20061;-94
2021/08/13 06:26:49;;;;;;;16.77;3.33;;;;;;;19.67;65.59;100939.19;4935796;29;20027;-95
2021/08/13 06:29:14;;;;;;;19.17;3.92;;;;;;;19.83;65.03;100953.69;4936844;29;20493;-93
2021/08/13 06:31:40;;;;;;;21.15;4.88;;;;;;;19.79;65.15;100951.31;4936549;29;20035;-93
2021/08/13 06:34:05;;;;;;;15.63;3.67;;;;;;;19.95;65.02;100953.31;4936577;29;20534;-94
2021/08/13 06:36:30;;;;;;;16.60;3.83;;;;;;;19.95;65.16;100957.81;4935437;29;20107;-96
2021/08/13 06:38:56;;;;;;;17.52;3.78;;;;;;;19.71;65.62;100951.25;4936643;29;20024;-93
2021/08/13 06:41:21;;;;;;;25.23;5.03;;;;;;;19.90;65.08;100957.41;4935283;29;20026;-94
2021/08/13 06:43:46;;;;;;;19.08;3.85;;;;;;;20.00;64.77;100955.50;4936461;29;20031;-94
2021/08/13 06:46:12;;;;;;;19.92;3.72;;;;;;;20.16;64.20;100960.16;4935293;29;20028;-94
2021/08/13 06:48:38;;;;;;;22.38;4.03;;;;;;;20.12;64.47;100956.13;4935133;29;20051;-94
2021/08/13 06:51:04;;;;;;;15.15;3.42;;;;;;;20.15;64.60;100955.81;4936486;29;20028;-94
2021/08/13 06:53:29;;;;;;;17.40;3.80;;;;;;;20.14;64.66;100968.34;4934924;29;20493;-93
2021/08/13 06:55:55;;;;;;;16.85;3.58;;;;;;;19.98;65.00;100974.34;4936309;29;20030;-93
2021/08/13 06:58:20;;;;;;;21.58;4.65;;;;;;;20.28;64.45;100979.41;4934953;29;20031;-94
2021/08/13 07:00:46;;;;;;;16.98;3.25;;;;;;;20.32;63.93;100964.78;4934952;29;20027;-94
2021/08/13 07:03:11;;;;;;;18.50;3.53;;;;;;;20.30;63.69;100977.44;4936117;29;20024;-94
2021/08/13 07:05:36;;;;;;;21.95;5.18;;;;;;;20.52;63.91;100982.31;4935983;29;20114;-94
2021/08/13 07:08:20;;;;;;;24.70;3.58;;;;;;;20.89;62.99;100983.06;4936143;29;20042;-94
2021/08/13 07:10:45;;;;;;;12.70;3.40;;;;;;;20.79;62.99;100983.19;4936097;29;20411;-93
2021/08/13 07:13:10;;;;;;;14.95;3.35;;;;;;;20.90;62.70;100985.59;4936046;29;20034;-94
2021/08/13 07:15:36;;;;;;;16.65;3.97;;;;;;;20.88;62.87;100981.41;4935829;29;20032;-94
2021/08/13 07:18:01;;;;;;;16.52;3.60;;;;;;;20.86;63.15;100988.75;4935879;29;20035;-94
2021/08/13 07:20:27;;;;;;;21.02;3.97;;;;;;;20.70;63.31;100987.63;4935792;29;20046;-94
2021/08/13 07:22:53;;;;;;;14.57;3.67;;;;;;;21.18;61.87;100988.06;4934581;29;20078;-95
2021/08/13 07:25:19;;;;;;;11.50;3.08;;;;;;;21.27;62.01;100980.94;4935724;29;20028;-93
2021/08/13 07:27:44;;;;;;;19.85;3.97;;;;;;;21.29;61.68;100978.97;4935588;29;20027;-94
2021/08/13 07:30:10;;;;;;;23.42;4.18;;;;;;;21.44;60.35;100988.03;4935432;29;20031;-93
2021/08/13 07:32:36;;;;;;;20.75;3.92;;;;;;;21.38;61.20;100983.31;4934099;29;20035;-93
2021/08/13 07:35:03;;;;;;;18.52;3.30;;;;;;;21.58;60.91;100997.28;4935420;29;20513;-94
2021/08/13 07:37:28;;;;;;;19.52;5.00;;;;;;;21.37;61.14;100993.19;4937097;29;20027;-94
2021/08/13 07:39:53;;;;;;;21.92;4.60;;;;;;;21.18;61.71;100999.59;4936099;29;20039;-94
2021/08/13 07:42:19;;;;;;;19.27;4.00;;;;;;;21.46;60.93;100988.72;4934054;29;20027;-94
2021/08/13 07:44:45;;;;;;;16.15;4.22;;;;;;;21.65;60.72;100994.81;4935076;29;20040;-94
2021/08/13 07:47:12;;;;;;;22.23;5.35;;;;;;;21.70;60.10;100993.34;4950076;28;20028;-93
2021/08/13 07:49:37;;;;;;;21.08;4.72;;;;;;;21.89;60.38;101002.06;4934136;29;20106;-94
2021/08/13 07:52:03;;;;;;;13.30;3.28;;;;;;;22.06;60.72;101010.94;4935395;29;20518;-93
2021/08/13 07:54:29;;;;;;;22.70;5.03;;;;;;;22.12;60.04;101019.16;4935254;29;20028;-94
2021/08/13 07:56:54;;;;;;;16.25;3.92;;;;;;;22.31;59.49;101010.00;4933958;29;20031;-94
2021/08/13 07:59:20;;;;;;;20.27;3.78;;;;;;;22.48;58.95;101008.16;4933643;29;20394;-93
2021/08/13 08:01:45;;;;;;;13.10;4.22;;;;;;;22.49;58.37;101022.38;4933880;29;20040;-93
2021/08/13 08:04:11;;;;;;;19.05;4.35;;;;;;;22.53;58.37;101021.88;4935039;29;20024;-93
2021/08/13 08:06:36;;;;;;;13.10;3.83;;;;;;;22.43;58.40;101021.19;4934909;29;20026;-94
2021/08/13 08:09:01;;;;;;;15.10;3.10;;;;;;;22.58;58.15;101029.41;4935141;29;20080;-94
2021/08/13 08:11:27;;;;;;;14.70;4.40;;;;;;;22.56;58.33;101031.41;4935049;29;20034;-93
2021/08/13 08:13:52;;;;;;;20.40;3.10;;;;;;;22.19;58.68;101024.66;4935026;29;20027;-94
2021/08/13 08:16:18;;;;;;;20.52;4.25;;;;;;;22.32;59.26;101021.53;4934951;29;20028;-94
2021/08/13 08:18:43;;;;;;;20.20;3.53;;;;;;;22.67;58.41;101017.69;4934855;29;20024;-93
2021/08/13 08:21:08;;;;;;;19.42;4.13;;;;;;;22.95;57.79;101020.84;4934822;29;20036;-93
2021/08/13 08:23:34;;;;;;;20.23;3.63;;;;;;;22.86;58.16;101010.31;4934866;29;20028;-93
2021/08/13 08:25:59;;;;;;;19.40;4.07;;;;;;;23.03;57.07;101011.97;4934641;29;20030;-94
2021/08/13 08:28:24;;;;;;;17.60;3.50;;;;;;;23.00;57.60;101022.16;4933391;29;20032;-94
2021/08/13 08:30:50;;;;;;;15.57;2.97;;;;;;;22.97;58.07;101021.50;4934700;29;20020;-94
2021/08/13 08:33:15;;;;;;;11.80;3.08;;;;;;;23.06;57.34;101026.88;4934594;29;20035;-94
2021/08/13 08:35:41;;;;;;;13.45;3.25;;;;;;;23.18;56.71;101030.84;4934671;29;20356;-94
2021/08/13 08:38:08;;;;;;;16.23;3.72;;;;;;;22.86;57.21;101037.91;4934789;29;20095;-93
2021/08/13 08:40:36;;;;;;;16.52;3.78;;;;;;;23.06;56.18;101022.34;4934318;29;20024;-94
2021/08/13 08:43:05;;;;;;;15.30;3.97;;;;;;;22.86;57.51;101032.56;4938940;29;20458;-93
2021/08/13 08:45:32;;;;;;;14.30;4.35;;;;;;;22.71;57.75;101029.75;4937481;29;20032;-93
2021/08/13 08:48:01;;;;;;;20.98;4.30;;;;;;;22.42;57.56;101046.28;4938957;29;20121;-95
2021/08/13 08:50:28;;;;;;;19.58;4.18;;;;;;;22.54;58.11;101047.63;4938418;29;20027;-94
2021/08/13 08:52:56;;;;;;;21.00;4.88;;;;;;;22.33;58.31;101048.13;4938455;29;20062;-94
2021/08/13 08:55:22;;;;;;;11.88;3.58;;;;;;;22.17;59.13;101045.38;4938312;29;20032;-93
2021/08/13 08:57:47;;;;;;;22.30;4.45;;;;;;;21.93;59.64;101057.69;4938313;29;20484;-93
2021/08/13 09:00:15;;;;;;;17.83;5.13;;;;;;;21.98;59.64;101055.38;4938142;29;20363;-94
2021/08/13 09:02:44;;;;;;;15.80;3.65;;;;;;;22.18;60.04;101066.63;4938197;29;20051;-94
2021/08/13 09:05:10;;;;;;;23.85;4.50;;;;;;;21.83;60.82;101053.50;4938138;29;20031;-94
2021/08/13 09:07:36;;;;;;;21.17;4.43;;;;;;;21.57;62.36;101057.91;4938049;29;20038;-95
2021/08/13 09:10:03;;;;;;;18.75;4.32;;;;;;;21.68;62.71;101074.66;4938246;29;20019;-94
2021/08/13 09:12:29;;;;;;;11.70;3.25;;;;;;;21.69;62.59;101084.34;4937069;29;20042;-96
2021/08/13 09:14:54;;;;;;;22.27;5.15;;;;;;;21.51;63.23;101079.09;4936871;29;20406;-95
2021/08/13 09:17:28;;;;;;;19.30;4.65;;;;;;;21.67;63.05;101079.16;4938054;29;20028;-95
2021/08/13 09:19:53;;;;;;;16.17;3.55;;;;;;;21.42;64.22;101086.19;4938295;29;20024;-95
2021/08/13 09:22:21;;;;;;;21.63;4.10;;;;;;;21.39;64.39;101082.00;4952872;29;20035;-96
2021/08/13 09:24:50;;;;;;;20.20;4.13;;;;;;;21.03;65.98;101078.63;4936644;29;20019;-96
2021/08/13 09:27:27;;;;;;;22.02;3.65;;;;;;;21.54;63.80;101084.97;4937259;29;20051;-95
2021/08/13 09:30:12;;;;;;;18.08;4.22;;;;;;;21.58;64.60;101083.66;4936956;29;20126;-94
2021/08/13 09:32:39;;;;;;;12.65;3.38;;;;;;;21.52;64.91;101097.63;4936755;29;20028;-95
2021/08/13 09:35:06;;;;;;;20.60;5.05;;;;;;;21.51;65.29;101090.63;4936912;29;20042;-95
2021/08/13 09:37:34;;;;;;;10.77;3.60;;;;;;;21.79;64.73;101099.25;4937723;29;20167;-95
2021/08/13 09:40:00;;;;;;;23.45;4.32;;;;;;;21.94;64.87;101090.66;4936764;29;20050;-95
2021/08/13 09:42:38;;;;;;;18.35;4.00;;;;;;;22.28;64.09;101092.44;4936448;29;20486;-95
2021/08/13 09:45:07;;;;;;;15.45;3.05;;;;;;;22.53;63.40;101079.91;4936519;29;20031;-94
2021/08/13 09:47:47;;;;;;;15.38;3.38;;;;;;;23.11;61.10;101083.44;4952429;29;20023;-95
2021/08/13 09:50:20;;;;;;;12.27;3.03;;;;;;;23.32;61.29;101083.75;4937583;29;20036;-95
2021/08/13 09:53:14;;;;;;;13.50;3.50;;;;;;;23.45;61.12;101077.81;4937500;29;20111;-94
2021/08/13 09:55:41;;;;;;;10.68;2.92;;;;;;;23.86;59.79;101090.28;4937547;29;20031;-95
2021/08/13 09:58:08;;;;;;;11.13;3.35;;;;;;;23.73;58.32;101082.75;4935867;29;20031;-95
2021/08/13 10:00:45;;;;;;;15.80;2.95;;;;;;;23.96;58.96;101088.22;4937491;29;20159;-95
2021/08/13 10:03:10;;;;;;;15.48;3.35;;;;;;;23.68;58.73;101085.97;4935872;29;20070;-94
2021/08/13 10:05:36;;;;;;;18.23;3.63;;;;;;;23.87;58.68;101082.03;4937212;29;20110;-93
2021/08/13 10:08:03;;;;;;;11.70;3.10;;;;;;;24.22;56.53;101087.06;4937180;29;20382;-94
2021/08/13 10:10:28;;;;;;;18.15;3.35;;;;;;;24.02;57.62;101086.69;4935758;29;20024;-94
2021/08/13 10:12:54;;;;;;;14.27;3.50;;;;;;;24.01;57.64;101093.03;4936981;29;20038;-94
2021/08/13 10:15:36;;;;;;;17.70;4.03;;;;;;;23.81;57.44;101093.47;4935568;29;20034;-94
2021/08/13 10:18:07;;;;;;;9.93;3.28;;;;;;;23.57;58.43;101097.06;4936887;29;20036;-94
2021/08/13 10:20:35;;;;;;;14.65;3.10;;;;;;;22.61;60.05;101090.66;4935827;29;20042;-94
2021/08/13 10:23:01;;;;;;;14.43;3.50;;;;;;;23.06;59.61;101101.84;4935642;29;20119;-94
2021/08/13 10:25:26;;;;;;;10.88;3.35;;;;;;;23.24;59.11;101090.94;4935460;29;20161;-95
2021/08/13 10:27:53;;;;;;;14.25;3.65;;;;;;;23.24;58.77;101096.31;4935623;29;20411;-94
2021/08/13 10:30:20;;;;;;;15.05;3.10;;;;;;;23.14;58.09;101104.53;4936545;29;20019;-95
2021/08/13 10:32:46;;;;;;;19.90;3.20;;;;;;;22.91;58.26;101104.38;4935221;29;20028;-94
2021/08/13 10:35:12;;;;;;;12.32;3.25;;;;;;;23.10;57.75;101109.38;4936607;29;20052;-94
2021/08/13 10:37:39;;;;;;;21.92;4.55;;;;;;;23.11;57.52;101107.56;4935355;29;20071;-95
2021/08/13 10:40:07;;;;;;;17.50;3.40;;;;;;;22.82;58.67;101108.03;4935390;29;20082;-94
2021/08/13 10:42:36;;;;;;;22.10;3.70;;;;;;;22.85;59.63;101118.38;4936569;29;20031;-94
2021/08/13 10:45:05;;;;;;;22.25;4.40;;;;;;;22.78;59.82;101131.63;4936296;29;20080;-94
2021/08/13 10:47:34;;;;;;;17.25;4.00;;;;;;;22.59;60.30;101132.78;4936323;29;20031;-94
2021/08/13 10:50:01;;;;;;;11.45;2.85;;;;;;;22.35;61.34;101128.22;4936454;29;20371;-95
2021/08/13 10:52:38;;;;;;;19.13;3.97;;;;;;;22.63;61.24;101133.28;4936230;29;20028;-94
2021/08/13 10:55:05;;;;;;;14.63;3.20;;;;;;;22.46;60.67;101119.88;4934900;29;20067;-95
2021/08/13 10:58:03;;;;;;;24.05;3.97;;;;;;;22.78;60.54;101127.09;4934871;29;20455;-94
2021/08/13 11:01:06;;;;;;;15.65;3.45;;;;;;;22.66;61.31;101132.97;4903757;29;20047;-94
2021/08/13 11:03:36;;;;;;;17.48;3.33;;;;;;;22.44;62.06;101140.63;4934363;29;20069;-95
2021/08/13 11:06:02;;;;;;;14.55;3.28;;;;;;;22.53;61.60;101126.25;4935919;29;20082;-95
2021/08/13 11:08:40;;;;;;;13.00;2.72;;;;;;;22.73;61.23;101128.63;4935887;29;20199;-95
2021/08/13 11:11:08;;;;;;;14.20;3.13;;;;;;;22.62;61.17;101115.56;4935864;29;20091;-94
2021/08/13 11:13:38;;;;;;;20.75;3.80;;;;;;;22.71;60.91;101120.75;4935895;29;20032;-95
2021/08/13 11:16:25;;;;;;;17.48;3.30;;;;;;;22.78;61.22;101120.91;4934676;29;20031;-95
2021/08/13 11:18:59;;;;;;;13.00;3.75;;;;;;;22.88;60.97;101110.88;4934597;29;20031;-94